sensor_id;sensor_type;location;lat;lon;timestamp;pressure;altitude;pressure_sealevel;temperature;humidity
72055;BME280;59936;51.490;5.436;2022-12-07T00:02:06;101508.22;;;2.20;100.00
72055;BME280;59936;51.490;5.436;2022-12-07T00:07:08;101509.91;;;2.12;100.00
72055;BME280;59936;51.490;5.436;2022-12-07T00:12:11;101497.84;;;2.01;100.00
72055;BME280;59936;51.490;5.436;2022-12-07T00:17:13;101510.69;;;1.92;100.00
72055;BME280;59936;51.490;5.436;2022-12-07T00:22:15;101501.16;;;1.74;100.00
72055;BME280;59936;51.490;5.436;2022-12-07T00:27:18;101502.81;;;1.65;100.00
72055;BME280;59936;51.490;5.436;2022-12-07T00:32:19;101495.91;;;1.53;100.00
72055;BME280;59936;51.490;5.436;2022-12-07T00:37:21;101489.84;;;1.47;100.00
72055;BME280;59936;51.490;5.436;2022-12-07T00:42:24;101483.81;;;1.45;100.00
72055;BME280;59936;51.490;5.436;2022-12-07T00:47:26;101490.69;;;1.43;100.00
72055;BME280;59936;51.490;5.436;2022-12-07T00:52:27;101486.41;;;1.46;100.00
72055;BME280;59936;51.490;5.436;2022-12-07T00:57:31;101481.25;;;1.43;100.00
72055;BME280;59936;51.490;5.436;2022-12-07T01:02:33;101482.94;;;1.38;100.00
72055;BME280;59936;51.490;5.436;2022-12-07T01:07:34;101480.41;;;1.47;100.00
72055;BME280;59936;51.490;5.436;2022-12-07T01:12:38;101482.13;;;1.50;100.00
72055;BME280;59936;51.490;5.436;2022-12-07T01:17:40;101481.28;;;1.49;100.00
72055;BME280;59936;51.490;5.436;2022-12-07T01:22:43;101480.41;;;1.46;100.00
72055;BME280;59936;51.490;5.436;2022-12-07T01:27:46;101483.81;;;1.38;100.00
72055;BME280;59936;51.490;5.436;2022-12-07T01:32:48;101484.69;;;1.42;100.00
72055;BME280;59936;51.490;5.436;2022-12-07T01:37:49;101479.56;;;1.45;100.00
72055;BME280;59936;51.490;5.436;2022-12-07T01:42:52;101480.47;;;1.55;100.00
72055;BME280;59936;51.490;5.436;2022-12-07T01:47:56;101493.38;;;1.66;100.00
72055;BME280;59936;51.490;5.436;2022-12-07T01:53:01;101490.03;;;1.86;100.00
72055;BME280;59936;51.490;5.436;2022-12-07T01:58:06;101484.91;;;1.86;100.00
72055;BME280;59936;51.490;5.436;2022-12-07T02:03:11;101474.56;;;1.83;100.00
72055;BME280;59936;51.490;5.436;2022-12-07T02:08:19;101472.91;;;1.88;100.00
72055;BME280;59936;51.490;5.436;2022-12-07T02:13:25;101468.59;;;1.85;100.00
72055;BME280;59936;51.490;5.436;2022-12-07T02:18:38;101472.81;;;1.69;100.00
72055;BME280;59936;51.490;5.436;2022-12-07T02:29:45;101476.19;;;1.59;100.00
72055;BME280;59936;51.490;5.436;2022-12-07T02:34:55;101473.63;;;1.59;100.00
72055;BME280;59936;51.490;5.436;2022-12-07T02:40:10;101473.63;;;1.60;100.00
72055;BME280;59936;51.490;5.436;2022-12-07T02:45:21;101466.66;;;1.42;100.00
72055;BME280;59936;51.490;5.436;2022-12-07T02:50:27;101458.91;;;1.33;100.00
72055;BME280;59936;51.490;5.436;2022-12-07T02:55:33;101463.97;;;1.23;100.00
72055;BME280;59936;51.490;5.436;2022-12-07T03:00:49;101465.78;;;1.37;100.00
72055;BME280;59936;51.490;5.436;2022-12-07T03:06:04;101467.56;;;1.44;100.00
72055;BME280;59936;51.490;5.436;2022-12-07T03:11:16;101476.19;;;1.60;100.00
72055;BME280;59936;51.490;5.436;2022-12-07T03:16:30;101471.97;;;1.72;100.00
72055;BME280;59936;51.490;5.436;2022-12-07T03:21:39;101472.78;;;1.58;100.00
72055;BME280;59936;51.490;5.436;2022-12-07T03:26:46;101471.00;;;1.49;100.00
72055;BME280;59936;51.490;5.436;2022-12-07T03:31:58;101462.44;;;1.50;100.00
72055;BME280;59936;51.490;5.436;2022-12-07T03:37:08;101458.13;;;1.46;100.00
72055;BME280;59936;51.490;5.436;2022-12-07T03:42:16;101463.31;;;1.56;100.00
72055;BME280;59936;51.490;5.436;2022-12-07T03:47:25;101459.13;;;1.76;100.00
72055;BME280;59936;51.490;5.436;2022-12-07T03:52:35;101461.69;;;1.81;100.00
72055;BME280;59936;51.490;5.436;2022-12-07T03:57:43;101464.25;;;1.79;100.00
72055;BME280;59936;51.490;5.436;2022-12-07T04:02:51;101466.00;;;1.87;100.00
72055;BME280;59936;51.490;5.436;2022-12-07T04:07:53;101462.59;;;1.88;100.00
72055;BME280;59936;51.490;5.436;2022-12-07T04:12:54;101456.59;;;1.90;100.00
72055;BME280;59936;51.490;5.436;2022-12-07T04:17:59;101457.44;;;1.91;100.00
72055;BME280;59936;51.490;5.436;2022-12-07T04:23:00;101454.88;;;1.94;100.00
72055;BME280;59936;51.490;5.436;2022-12-07T04:28:02;101459.22;;;2.01;100.00
72055;BME280;59936;51.490;5.436;2022-12-07T04:33:05;101458.34;;;2.04;100.00
72055;BME280;59936;51.490;5.436;2022-12-07T04:38:08;101450.63;;;2.05;100.00
72055;BME280;59936;51.490;5.436;2022-12-07T04:43:10;101436.06;;;2.06;100.00
72055;BME280;59936;51.490;5.436;2022-12-07T04:48:13;101440.34;;;2.09;100.00
72055;BME280;59936;51.490;5.436;2022-12-07T04:53:15;101446.38;;;2.14;100.00
72055;BME280;59936;51.490;5.436;2022-12-07T04:58:17;101443.81;;;2.20;100.00
72055;BME280;59936;51.490;5.436;2022-12-07T05:03:20;101445.53;;;2.32;100.00
72055;BME280;59936;51.490;5.436;2022-12-07T05:08:22;101433.53;;;2.36;100.00
72055;BME280;59936;51.490;5.436;2022-12-07T05:13:24;101440.38;;;2.30;100.00
72055;BME280;59936;51.490;5.436;2022-12-07T05:18:27;101438.66;;;2.26;100.00
72055;BME280;59936;51.490;5.436;2022-12-07T05:23:29;101426.66;;;2.25;100.00
72055;BME280;59936;51.490;5.436;2022-12-07T05:28:30;101436.94;;;2.25;100.00
72055;BME280;59936;51.490;5.436;2022-12-07T05:33:33;101436.94;;;2.22;100.00
72055;BME280;59936;51.490;5.436;2022-12-07T05:38:35;101435.22;;;2.16;100.00
72055;BME280;59936;51.490;5.436;2022-12-07T05:43:37;101430.91;;;2.12;100.00
72055;BME280;59936;51.490;5.436;2022-12-07T05:48:40;101421.44;;;1.99;100.00
72055;BME280;59936;51.490;5.436;2022-12-07T05:53:42;101429.97;;;1.80;100.00
72055;BME280;59936;51.490;5.436;2022-12-07T05:58:44;101421.28;;;1.60;100.00
72055;BME280;59936;51.490;5.436;2022-12-07T06:04:05;101417.00;;;1.54;100.00
72055;BME280;59936;51.490;5.436;2022-12-07T06:09:07;101425.56;;;1.48;100.00
72055;BME280;59936;51.490;5.436;2022-12-07T06:14:10;101425.53;;;1.44;100.00
72055;BME280;59936;51.490;5.436;2022-12-07T06:19:13;101426.31;;;1.35;100.00
72055;BME280;59936;51.490;5.436;2022-12-07T06:24:16;101438.28;;;1.26;100.00
72055;BME280;59936;51.490;5.436;2022-12-07T06:29:18;101430.56;;;1.25;100.00
72055;BME280;59936;51.490;5.436;2022-12-07T06:34:25;101434.03;;;1.28;100.00
72055;BME280;59936;51.490;5.436;2022-12-07T06:39:28;101429.00;;;1.52;100.00
72055;BME280;59936;51.490;5.436;2022-12-07T06:44:30;101437.53;;;1.46;100.00
72055;BME280;59936;51.490;5.436;2022-12-07T06:49:34;101438.41;;;1.51;100.00
72055;BME280;59936;51.490;5.436;2022-12-07T06:54:36;101435.84;;;1.53;100.00
72055;BME280;59936;51.490;5.436;2022-12-07T06:59:37;101429.88;;;1.52;100.00
72055;BME280;59936;51.490;5.436;2022-12-07T07:04:41;101426.41;;;1.52;100.00
72055;BME280;59936;51.490;5.436;2022-12-07T07:09:42;101434.09;;;1.47;100.00
72055;BME280;59936;51.490;5.436;2022-12-07T07:14:44;101443.56;;;1.47;100.00
72055;BME280;59936;51.490;5.436;2022-12-07T07:19:47;101444.38;;;1.39;100.00
72055;BME280;59936;51.490;5.436;2022-12-07T07:24:49;101446.97;;;1.44;100.00
72055;BME280;59936;51.490;5.436;2022-12-07T07:29:50;101440.97;;;1.45;100.00
72055;BME280;59936;51.490;5.436;2022-12-07T07:34:55;101442.69;;;1.46;100.00
72055;BME280;59936;51.490;5.436;2022-12-07T07:39:57;101446.97;;;1.47;100.00
72055;BME280;59936;51.490;5.436;2022-12-07T07:44:59;101447.84;;;1.49;100.00
72055;BME280;59936;51.490;5.436;2022-12-07T07:50:03;101444.41;;;1.50;100.00
72055;BME280;59936;51.490;5.436;2022-12-07T07:55:06;101459.00;;;1.48;100.00
72055;BME280;59936;51.490;5.436;2022-12-07T08:00:11;101452.16;;;1.53;100.00
72055;BME280;59936;51.490;5.436;2022-12-07T08:05:17;101450.47;;;1.59;100.00
72055;BME280;59936;51.490;5.436;2022-12-07T08:10:18;101453.88;;;1.54;100.00
72055;BME280;59936;51.490;5.436;2022-12-07T08:15:20;101447.00;;;1.52;100.00
72055;BME280;59936;51.490;5.436;2022-12-07T08:20:23;101465.81;;;1.43;100.00
72055;BME280;59936;51.490;5.436;2022-12-07T08:25:27;101470.91;;;1.34;100.00
72055;BME280;59936;51.490;5.436;2022-12-07T08:30:29;101470.91;;;1.34;100.00
72055;BME280;59936;51.490;5.436;2022-12-07T08:35:33;101479.56;;;1.48;100.00
72055;BME280;59936;51.490;5.436;2022-12-07T08:40:37;101483.97;;;1.66;100.00
72055;BME280;59936;51.490;5.436;2022-12-07T08:45:40;101481.53;;;1.96;100.00
72055;BME280;59936;51.490;5.436;2022-12-07T08:50:45;101479.84;;;2.14;100.00
72055;BME280;59936;51.490;5.436;2022-12-07T08:55:47;101478.16;;;2.25;100.00
72055;BME280;59936;51.490;5.436;2022-12-07T09:00:49;101468.75;;;2.41;100.00
72055;BME280;59936;51.490;5.436;2022-12-07T09:05:53;101469.63;;;2.54;100.00
72055;BME280;59936;51.490;5.436;2022-12-07T09:10:57;101465.34;;;2.56;100.00
72055;BME280;59936;51.490;5.436;2022-12-07T09:15:59;101465.34;;;2.70;100.00
72055;BME280;59936;51.490;5.436;2022-12-07T09:21:03;101469.63;;;2.87;100.00
72055;BME280;59936;51.490;5.436;2022-12-07T09:26:05;101471.34;;;3.04;100.00
72055;BME280;59936;51.490;5.436;2022-12-07T09:31:07;101462.75;;;3.03;100.00
72055;BME280;59936;51.490;5.436;2022-12-07T09:36:10;101461.06;;;3.02;100.00
72055;BME280;59936;51.490;5.436;2022-12-07T09:41:12;101469.66;;;2.90;100.00
72055;BME280;59936;51.490;5.436;2022-12-07T09:46:17;101469.63;;;2.89;100.00
72055;BME280;59936;51.490;5.436;2022-12-07T09:51:23;101464.50;;;2.95;100.00
72055;BME280;59936;51.490;5.436;2022-12-07T09:56:25;101471.91;;;4.12;100.00
72055;BME280;59936;51.490;5.436;2022-12-07T10:01:31;101471.75;;;6.16;100.00
72055;BME280;59936;51.490;5.436;2022-12-07T10:06:36;101462.53;;;7.08;100.00
72055;BME280;59936;51.490;5.436;2022-12-07T10:12:04;101457.38;;;5.88;100.00
72055;BME280;59936;51.490;5.436;2022-12-07T10:17:29;101450.88;;;5.56;100.00
72055;BME280;59936;51.490;5.436;2022-12-07T10:22:34;101442.66;;;5.17;100.00
72055;BME280;59936;51.490;5.436;2022-12-07T10:27:36;101442.50;;;6.64;100.00
72055;BME280;59936;51.490;5.436;2022-12-07T10:32:38;101434.34;;;6.88;100.00
72055;BME280;59936;51.490;5.436;2022-12-07T10:37:41;101426.31;;;7.90;100.00
72055;BME280;59936;51.490;5.436;2022-12-07T10:43:00;101423.84;;;6.42;100.00
72055;BME280;59936;51.490;5.436;2022-12-07T10:48:07;101419.56;;;5.76;100.00
72055;BME280;59936;51.490;5.436;2022-12-07T10:59:18;101410.94;;;5.76;100.00
72055;BME280;59936;51.490;5.436;2022-12-07T11:04:43;101402.88;;;6.56;100.00
72055;BME280;59936;51.490;5.436;2022-12-07T11:10:06;101388.88;;;6.66;100.00
72055;BME280;59936;51.490;5.436;2022-12-07T11:15:17;101387.38;;;5.93;100.00
72055;BME280;59936;51.490;5.436;2022-12-07T11:20:37;101388.16;;;5.31;100.00
72055;BME280;59936;51.490;5.436;2022-12-07T11:25:53;101376.94;;;5.30;100.00
72055;BME280;59936;51.490;5.436;2022-12-07T11:31:06;101377.88;;;5.26;100.00
72055;BME280;59936;51.490;5.436;2022-12-07T11:36:29;101369.25;;;5.25;100.00
72055;BME280;59936;51.490;5.436;2022-12-07T11:41:40;101362.44;;;5.18;100.00
72055;BME280;59936;51.490;5.436;2022-12-07T11:46:48;101362.34;;;5.26;100.00
72055;BME280;59936;51.490;5.436;2022-12-07T11:51:54;101357.19;;;5.24;100.00
72055;BME280;59936;51.490;5.436;2022-12-07T11:57:04;101361.72;;;5.05;100.00
72055;BME280;59936;51.490;5.436;2022-12-07T12:02:15;101355.66;;;5.05;100.00
72055;BME280;59936;51.490;5.436;2022-12-07T12:07:25;101349.81;;;4.88;100.00
72055;BME280;59936;51.490;5.436;2022-12-07T12:12:50;101343.16;;;4.66;100.00
72055;BME280;59936;51.490;5.436;2022-12-07T12:18:35;101346.63;;;4.64;100.00
72055;BME280;59936;51.490;5.436;2022-12-07T12:23:55;101335.22;;;4.84;100.00
72055;BME280;59936;51.490;5.436;2022-12-07T12:29:04;101329.63;;;5.19;100.00
72055;BME280;59936;51.490;5.436;2022-12-07T12:34:38;101324.91;;;5.52;100.00
72055;BME280;59936;51.490;5.436;2022-12-07T12:39:41;101312.69;;;5.63;100.00
72055;BME280;59936;51.490;5.436;2022-12-07T12:45:34;101299.56;;;6.33;100.00
72055;BME280;59936;51.490;5.436;2022-12-07T12:50:37;101300.56;;;6.73;100.00
72055;BME280;59936;51.490;5.436;2022-12-07T13:01:40;101292.78;;;5.67;100.00
72055;BME280;59936;51.490;5.436;2022-12-07T13:06:45;101284.69;;;5.27;100.00
72055;BME280;59936;51.490;5.436;2022-12-07T13:11:48;101284.88;;;5.12;100.00
72055;BME280;59936;51.490;5.436;2022-12-07T13:16:58;101281.53;;;5.02;100.00
72055;BME280;59936;51.490;5.436;2022-12-07T13:22:00;101277.38;;;4.92;100.00
72055;BME280;59936;51.490;5.436;2022-12-07T13:27:03;101273.06;;;4.90;100.00
72055;BME280;59936;51.490;5.436;2022-12-07T13:32:22;101267.88;;;4.92;100.00
72055;BME280;59936;51.490;5.436;2022-12-07T13:37:27;101266.00;;;5.05;100.00
72055;BME280;59936;51.490;5.436;2022-12-07T13:42:32;101258.47;;;6.09;100.00
72055;BME280;59936;51.490;5.436;2022-12-07T13:47:41;101254.91;;;6.64;100.00
72055;BME280;59936;51.490;5.436;2022-12-07T13:52:49;101249.22;;;5.92;100.00
72055;BME280;59936;51.490;5.436;2022-12-07T13:57:53;101245.69;;;5.38;100.00
72055;BME280;59936;51.490;5.436;2022-12-07T14:03:02;101245.16;;;5.16;100.00
72055;BME280;59936;51.490;5.436;2022-12-07T14:08:22;101244.41;;;5.06;100.00
72055;BME280;59936;51.490;5.436;2022-12-07T14:13:29;101235.25;;;4.82;100.00
72055;BME280;59936;51.490;5.436;2022-12-07T14:18:39;101229.38;;;4.66;100.00
72055;BME280;59936;51.490;5.436;2022-12-07T14:23:42;101227.56;;;4.74;100.00
72055;BME280;59936;51.490;5.436;2022-12-07T14:28:44;101208.53;;;4.78;100.00
72055;BME280;59936;51.490;5.436;2022-12-07T14:33:47;101219.06;;;4.62;100.00
72055;BME280;59936;51.490;5.436;2022-12-07T14:38:49;101214.06;;;4.47;100.00
72055;BME280;59936;51.490;5.436;2022-12-07T14:43:53;101210.69;;;4.42;100.00
72055;BME280;59936;51.490;5.436;2022-12-07T14:48:56;101208.13;;;4.40;100.00
72055;BME280;59936;51.490;5.436;2022-12-07T14:53:58;101210.75;;;4.35;100.00
72055;BME280;59936;51.490;5.436;2022-12-07T14:59:01;101207.38;;;4.27;100.00
72055;BME280;59936;51.490;5.436;2022-12-07T15:04:04;101207.41;;;4.24;100.00
72055;BME280;59936;51.490;5.436;2022-12-07T15:09:06;101203.97;;;4.25;100.00
72055;BME280;59936;51.490;5.436;2022-12-07T15:14:08;101190.25;;;4.18;100.00
72055;BME280;59936;51.490;5.436;2022-12-07T15:19:15;101194.66;;;4.08;100.00
72055;BME280;59936;51.490;5.436;2022-12-07T15:24:19;101194.84;;;3.88;100.00
72055;BME280;59936;51.490;5.436;2022-12-07T15:29:21;101192.41;;;3.71;100.00
72055;BME280;59936;51.490;5.436;2022-12-07T15:34:26;101194.09;;;3.72;100.00
72055;BME280;59936;51.490;5.436;2022-12-07T15:39:28;101194.19;;;3.63;100.00
72055;BME280;59936;51.490;5.436;2022-12-07T15:44:30;101189.13;;;3.53;100.00
72055;BME280;59936;51.490;5.436;2022-12-07T15:49:51;101189.13;;;3.53;100.00
72055;BME280;59936;51.490;5.436;2022-12-07T15:54:53;101185.63;;;3.57;100.00
72055;BME280;59936;51.490;5.436;2022-12-07T15:59:54;101177.94;;;3.51;100.00
72055;BME280;59936;51.490;5.436;2022-12-07T16:04:57;101177.13;;;3.43;100.00
72055;BME280;59936;51.490;5.436;2022-12-07T16:09:59;101166.81;;;3.40;100.00
72055;BME280;59936;51.490;5.436;2022-12-07T16:15:01;101171.16;;;3.34;100.00
72055;BME280;59936;51.490;5.436;2022-12-07T16:20:07;101175.47;;;3.32;100.00
72055;BME280;59936;51.490;5.436;2022-12-07T16:25:11;101170.31;;;3.31;100.00
72055;BME280;59936;51.490;5.436;2022-12-07T16:30:13;101160.88;;;3.28;100.00
72055;BME280;59936;51.490;5.436;2022-12-07T16:35:17;101160.00;;;3.29;100.00
72055;BME280;59936;51.490;5.436;2022-12-07T16:40:19;101148.84;;;3.27;100.00
72055;BME280;59936;51.490;5.436;2022-12-07T16:45:21;101150.56;;;3.27;100.00
72055;BME280;59936;51.490;5.436;2022-12-07T16:50:24;101147.16;;;3.26;100.00
72055;BME280;59936;51.490;5.436;2022-12-07T16:55:25;101139.44;;;3.23;100.00
72055;BME280;59936;51.490;5.436;2022-12-07T17:00:27;101141.16;;;3.21;100.00
72055;BME280;59936;51.490;5.436;2022-12-07T17:05:30;101137.75;;;3.19;100.00
72055;BME280;59936;51.490;5.436;2022-12-07T17:10:33;101128.31;;;3.16;100.00
72055;BME280;59936;51.490;5.436;2022-12-07T17:15:36;101129.16;;;3.17;100.00
72055;BME280;59936;51.490;5.436;2022-12-07T17:20:39;101128.31;;;3.15;100.00
72055;BME280;59936;51.490;5.436;2022-12-07T17:25:41;101124.84;;;3.16;100.00
72055;BME280;59936;51.490;5.436;2022-12-07T17:30:42;101120.59;;;3.08;100.00
72055;BME280;59936;51.490;5.436;2022-12-07T17:35:45;101112.88;;;3.05;100.00
72055;BME280;59936;51.490;5.436;2022-12-07T17:40:48;101110.38;;;2.99;100.00
72055;BME280;59936;51.490;5.436;2022-12-07T17:45:51;101111.25;;;2.96;100.00
72055;BME280;59936;51.490;5.436;2022-12-07T17:50:58;101101.75;;;2.97;100.00
72055;BME280;59936;51.490;5.436;2022-12-07T17:56:18;101096.63;;;2.94;100.00
72055;BME280;59936;51.490;5.436;2022-12-07T18:01:19;101095.78;;;2.95;100.00
72055;BME280;59936;51.490;5.436;2022-12-07T18:06:24;101096.63;;;2.94;100.00
72055;BME280;59936;51.490;5.436;2022-12-07T18:11:25;101088.03;;;2.95;100.00
72055;BME280;59936;51.490;5.436;2022-12-07T18:16:29;101084.59;;;2.96;100.00
72055;BME280;59936;51.490;5.436;2022-12-07T18:21:34;101082.00;;;2.96;100.00
72055;BME280;59936;51.490;5.436;2022-12-07T18:26:36;101088.94;;;2.92;100.00
72055;BME280;59936;51.490;5.436;2022-12-07T18:31:39;101083.78;;;2.91;100.00
72055;BME280;59936;51.490;5.436;2022-12-07T18:36:44;101072.63;;;2.86;100.00
72055;BME280;59936;51.490;5.436;2022-12-07T18:41:50;101064.97;;;2.75;100.00
72055;BME280;59936;51.490;5.436;2022-12-07T18:46:51;101055.56;;;2.66;100.00
72055;BME280;59936;51.490;5.436;2022-12-07T18:51:55;101060.75;;;2.60;100.00
72055;BME280;59936;51.490;5.436;2022-12-07T18:56:56;101057.31;;;2.57;100.00
72055;BME280;59936;51.490;5.436;2022-12-07T19:01:59;101063.34;;;2.56;100.00
72055;BME280;59936;51.490;5.436;2022-12-07T19:07:02;101054.81;;;2.50;100.00
72055;BME280;59936;51.490;5.436;2022-12-07T19:12:04;101058.25;;;2.46;100.00
72055;BME280;59936;51.490;5.436;2022-12-07T19:17:08;101057.41;;;2.45;100.00
72055;BME280;59936;51.490;5.436;2022-12-07T19:22:15;101047.97;;;2.41;100.00
72055;BME280;59936;51.490;5.436;2022-12-07T19:27:18;101047.16;;;2.34;100.00
72055;BME280;59936;51.490;5.436;2022-12-07T19:32:20;101046.28;;;2.30;100.00
72055;BME280;59936;51.490;5.436;2022-12-07T19:37:23;101050.63;;;2.25;100.00
72055;BME280;59936;51.490;5.436;2022-12-07T19:42:25;101054.06;;;2.21;100.00
72055;BME280;59936;51.490;5.436;2022-12-07T19:47:27;101046.34;;;2.19;100.00
72055;BME280;59936;51.490;5.436;2022-12-07T19:52:31;101036.03;;;2.21;100.00
72055;BME280;59936;51.490;5.436;2022-12-07T19:57:33;101043.75;;;2.24;100.00
72055;BME280;59936;51.490;5.436;2022-12-07T20:02:34;101036.03;;;2.27;100.00
72055;BME280;59936;51.490;5.436;2022-12-07T20:07:38;101027.41;;;2.31;100.00
72055;BME280;59936;51.490;5.436;2022-12-07T20:12:40;101027.38;;;2.35;100.00
72055;BME280;59936;51.490;5.436;2022-12-07T20:17:59;101017.94;;;2.41;100.00
72055;BME280;59936;51.490;5.436;2022-12-07T20:23:04;101026.47;;;2.45;100.00
72055;BME280;59936;51.490;5.436;2022-12-07T20:28:05;101019.63;;;2.47;100.00
72055;BME280;59936;51.490;5.436;2022-12-07T20:33:07;101013.59;;;2.45;100.00
72055;BME280;59936;51.490;5.436;2022-12-07T20:38:11;101012.72;;;2.46;100.00
72055;BME280;59936;51.490;5.436;2022-12-07T20:43:15;101005.00;;;2.46;100.00
72055;BME280;59936;51.490;5.436;2022-12-07T20:48:16;100999.00;;;2.46;100.00
72055;BME280;59936;51.490;5.436;2022-12-07T20:53:21;100987.84;;;2.43;100.00
72055;BME280;59936;51.490;5.436;2022-12-07T20:58:22;100989.53;;;2.46;100.00
72055;BME280;59936;51.490;5.436;2022-12-07T21:03:25;100982.69;;;2.47;100.00
72055;BME280;59936;51.490;5.436;2022-12-07T21:08:29;100979.28;;;2.43;100.00
72055;BME280;59936;51.490;5.436;2022-12-07T21:13:30;100981.00;;;2.39;100.00
72055;BME280;59936;51.490;5.436;2022-12-07T21:18:32;100981.88;;;2.37;100.00
72055;BME280;59936;51.490;5.436;2022-12-07T21:23:36;100974.16;;;2.35;100.00
72055;BME280;59936;51.490;5.436;2022-12-07T21:28:38;100969.88;;;2.33;100.00
72055;BME280;59936;51.490;5.436;2022-12-07T21:33:42;100963.03;;;2.31;100.00
72055;BME280;59936;51.490;5.436;2022-12-07T21:38:46;100957.00;;;2.31;100.00
72055;BME280;59936;51.490;5.436;2022-12-07T21:43:49;100951.00;;;2.30;100.00
72055;BME280;59936;51.490;5.436;2022-12-07T21:48:52;100950.16;;;2.30;100.00
72055;BME280;59936;51.490;5.436;2022-12-07T21:53:58;100948.41;;;2.30;100.00
72055;BME280;59936;51.490;5.436;2022-12-07T21:59:02;100950.16;;;2.31;100.00
72055;BME280;59936;51.490;5.436;2022-12-07T22:04:07;100952.72;;;2.31;100.00
72055;BME280;59936;51.490;5.436;2022-12-07T22:09:13;100947.53;;;2.35;100.00
72055;BME280;59936;51.490;5.436;2022-12-07T22:14:17;100938.97;;;2.36;100.00
72055;BME280;59936;51.490;5.436;2022-12-07T22:19:38;100935.50;;;2.40;100.00
72055;BME280;59936;51.490;5.436;2022-12-07T22:24:41;100928.66;;;2.39;100.00
72055;BME280;59936;51.490;5.436;2022-12-07T22:29:47;100928.66;;;2.39;100.00
72055;BME280;59936;51.490;5.436;2022-12-07T22:34:48;100924.34;;;2.38;100.00
72055;BME280;59936;51.490;5.436;2022-12-07T22:39:53;100912.34;;;2.37;100.00
72055;BME280;59936;51.490;5.436;2022-12-07T22:44:55;100906.31;;;2.38;100.00
72055;BME280;59936;51.490;5.436;2022-12-07T22:49:56;100899.44;;;2.37;100.00
72055;BME280;59936;51.490;5.436;2022-12-07T22:55:01;100889.16;;;2.34;100.00
72055;BME280;59936;51.490;5.436;2022-12-07T23:00:04;100875.47;;;2.30;100.00
72055;BME280;59936;51.490;5.436;2022-12-07T23:05:08;100863.47;;;2.27;100.00
72055;BME280;59936;51.490;5.436;2022-12-07T23:10:12;100857.44;;;2.28;100.00
72055;BME280;59936;51.490;5.436;2022-12-07T23:15:13;100861.78;;;2.23;100.00
72055;BME280;59936;51.490;5.436;2022-12-07T23:20:16;100854.91;;;2.22;100.00
72055;BME280;59936;51.490;5.436;2022-12-07T23:25:19;100850.66;;;2.15;100.00
72055;BME280;59936;51.490;5.436;2022-12-07T23:30:21;100843.81;;;2.11;100.00
72055;BME280;59936;51.490;5.436;2022-12-07T23:35:22;100850.72;;;2.07;100.00
72055;BME280;59936;51.490;5.436;2022-12-07T23:40:25;100839.63;;;1.99;100.00
72055;BME280;59936;51.490;5.436;2022-12-07T23:45:27;100837.94;;;1.96;100.00
72055;BME280;59936;51.490;5.436;2022-12-07T23:50:29;100837.94;;;1.93;100.00
72055;BME280;59936;51.490;5.436;2022-12-07T23:55:32;100829.38;;;1.91;100.00
